sensor_id;sensor_type;location;lat;lon;timestamp;P1;durP1;ratioP1;P2;durP2;ratioP2
16039;SDS011;8124;48.634;8.120;2022-07-23T00:00:39;48.00;;;43.08;;
16039;SDS011;8124;48.634;8.120;2022-07-23T00:05:42;48.78;;;43.78;;
16039;SDS011;8124;48.634;8.120;2022-07-23T00:10:45;48.05;;;43.25;;
16039;SDS011;8124;48.634;8.120;2022-07-23T00:15:50;48.67;;;43.78;;
16039;SDS011;8124;48.634;8.120;2022-07-23T00:20:53;48.28;;;43.35;;
16039;SDS011;8124;48.634;8.120;2022-07-23T00:25:56;48.17;;;43.30;;
16039;SDS011;8124;48.634;8.120;2022-07-23T00:31:06;48.40;;;43.50;;
16039;SDS011;8124;48.634;8.120;2022-07-23T00:36:09;47.95;;;43.10;;
16039;SDS011;8124;48.634;8.120;2022-07-23T00:41:12;48.75;;;43.75;;
16039;SDS011;8124;48.634;8.120;2022-07-23T00:46:19;48.88;;;43.92;;
16039;SDS011;8124;48.634;8.120;2022-07-23T00:51:23;48.35;;;43.50;;
16039;SDS011;8124;48.634;8.120;2022-07-23T00:56:25;49.50;;;44.50;;
16039;SDS011;8124;48.634;8.120;2022-07-23T01:01:30;48.60;;;43.72;;
16039;SDS011;8124;48.634;8.120;2022-07-23T01:06:34;48.92;;;43.92;;
16039;SDS011;8124;48.634;8.120;2022-07-23T01:11:38;48.45;;;43.63;;
16039;SDS011;8124;48.634;8.120;2022-07-23T01:16:45;49.58;;;44.28;;
16039;SDS011;8124;48.634;8.120;2022-07-23T01:21:51;48.95;;;43.92;;
16039;SDS011;8124;48.634;8.120;2022-07-23T01:26:59;47.97;;;43.17;;
16039;SDS011;8124;48.634;8.120;2022-07-23T01:32:03;48.00;;;43.13;;
16039;SDS011;8124;48.634;8.120;2022-07-23T01:37:06;47.92;;;43.03;;
16039;SDS011;8124;48.634;8.120;2022-07-23T01:42:11;48.08;;;43.22;;
16039;SDS011;8124;48.634;8.120;2022-07-23T01:47:14;49.17;;;44.17;;
16039;SDS011;8124;48.634;8.120;2022-07-23T01:52:18;48.38;;;43.50;;
16039;SDS011;8124;48.634;8.120;2022-07-23T01:57:25;47.85;;;43.05;;
16039;SDS011;8124;48.634;8.120;2022-07-23T02:02:28;47.47;;;42.75;;
16039;SDS011;8124;48.634;8.120;2022-07-23T02:07:31;47.95;;;43.15;;
16039;SDS011;8124;48.634;8.120;2022-07-23T02:12:37;49.22;;;44.22;;
16039;SDS011;8124;48.634;8.120;2022-07-23T02:17:40;47.30;;;42.53;;
16039;SDS011;8124;48.634;8.120;2022-07-23T02:22:43;48.08;;;43.22;;
16039;SDS011;8124;48.634;8.120;2022-07-23T02:27:47;47.35;;;42.40;;
16039;SDS011;8124;48.634;8.120;2022-07-23T02:32:50;47.35;;;42.58;;
16039;SDS011;8124;48.634;8.120;2022-07-23T02:37:53;47.70;;;42.83;;
16039;SDS011;8124;48.634;8.120;2022-07-23T02:42:58;48.03;;;43.08;;
16039;SDS011;8124;48.634;8.120;2022-07-23T02:48:02;47.65;;;42.85;;
16039;SDS011;8124;48.634;8.120;2022-07-23T02:53:05;46.63;;;41.92;;
16039;SDS011;8124;48.634;8.120;2022-07-23T02:58:10;46.92;;;42.15;;
16039;SDS011;8124;48.634;8.120;2022-07-23T03:03:13;46.53;;;41.80;;
16039;SDS011;8124;48.634;8.120;2022-07-23T03:08:16;46.42;;;41.72;;
16039;SDS011;8124;48.634;8.120;2022-07-23T03:13:25;47.45;;;42.45;;
16039;SDS011;8124;48.634;8.120;2022-07-23T03:18:28;47.90;;;43.08;;
16039;SDS011;8124;48.634;8.120;2022-07-23T03:23:31;48.17;;;43.28;;
16039;SDS011;8124;48.634;8.120;2022-07-23T03:28:37;47.25;;;42.33;;
16039;SDS011;8124;48.634;8.120;2022-07-23T03:33:40;46.88;;;42.17;;
16039;SDS011;8124;48.634;8.120;2022-07-23T03:38:43;47.28;;;42.38;;
16039;SDS011;8124;48.634;8.120;2022-07-23T03:43:48;47.47;;;42.65;;
16039;SDS011;8124;48.634;8.120;2022-07-23T03:48:51;47.42;;;42.63;;
16039;SDS011;8124;48.634;8.120;2022-07-23T03:53:59;46.55;;;41.80;;
16039;SDS011;8124;48.634;8.120;2022-07-23T03:59:03;47.03;;;42.13;;
16039;SDS011;8124;48.634;8.120;2022-07-23T04:04:07;47.00;;;42.13;;
16039;SDS011;8124;48.634;8.120;2022-07-23T04:09:12;46.85;;;41.95;;
16039;SDS011;8124;48.634;8.120;2022-07-23T04:14:17;47.38;;;42.35;;
16039;SDS011;8124;48.634;8.120;2022-07-23T04:19:21;46.33;;;41.58;;
16039;SDS011;8124;48.634;8.120;2022-07-23T04:24:33;46.55;;;41.78;;
16039;SDS011;8124;48.634;8.120;2022-07-23T04:29:38;46.75;;;41.95;;
16039;SDS011;8124;48.634;8.120;2022-07-23T04:34:41;46.92;;;42.08;;
16039;SDS011;8124;48.634;8.120;2022-07-23T04:39:44;47.38;;;42.38;;
16039;SDS011;8124;48.634;8.120;2022-07-23T04:44:49;46.80;;;42.03;;
16039;SDS011;8124;48.634;8.120;2022-07-23T04:49:53;47.10;;;42.13;;
16039;SDS011;8124;48.634;8.120;2022-07-23T04:54:56;46.65;;;41.85;;
16039;SDS011;8124;48.634;8.120;2022-07-23T05:00:00;47.50;;;42.58;;
16039;SDS011;8124;48.634;8.120;2022-07-23T05:05:04;48.28;;;43.17;;
16039;SDS011;8124;48.634;8.120;2022-07-23T05:10:08;47.20;;;42.30;;
16039;SDS011;8124;48.634;8.120;2022-07-23T05:15:12;47.13;;;42.42;;
16039;SDS011;8124;48.634;8.120;2022-07-23T05:20:15;47.13;;;42.20;;
16039;SDS011;8124;48.634;8.120;2022-07-23T05:25:18;46.13;;;41.42;;
16039;SDS011;8124;48.634;8.120;2022-07-23T05:30:23;46.80;;;42.00;;
16039;SDS011;8124;48.634;8.120;2022-07-23T05:40:53;47.55;;;42.65;;
16039;SDS011;8124;48.634;8.120;2022-07-23T05:45:58;47.95;;;42.85;;
16039;SDS011;8124;48.634;8.120;2022-07-23T05:51:01;49.60;;;43.00;;
16039;SDS011;8124;48.634;8.120;2022-07-23T05:56:08;47.92;;;43.03;;
16039;SDS011;8124;48.634;8.120;2022-07-23T06:01:13;48.20;;;43.20;;
16039;SDS011;8124;48.634;8.120;2022-07-23T06:06:34;48.50;;;43.30;;
16039;SDS011;8124;48.634;8.120;2022-07-23T06:11:37;47.40;;;42.50;;
16039;SDS011;8124;48.634;8.120;2022-07-23T06:16:42;48.03;;;43.00;;
16039;SDS011;8124;48.634;8.120;2022-07-23T06:21:45;48.20;;;43.15;;
16039;SDS011;8124;48.634;8.120;2022-07-23T06:26:50;48.15;;;43.25;;
16039;SDS011;8124;48.634;8.120;2022-07-23T06:31:55;48.30;;;43.20;;
16039;SDS011;8124;48.634;8.120;2022-07-23T06:36:59;48.17;;;43.22;;
16039;SDS011;8124;48.634;8.120;2022-07-23T06:42:02;49.47;;;43.33;;
16039;SDS011;8124;48.634;8.120;2022-07-23T06:47:18;48.67;;;43.47;;
16039;SDS011;8124;48.634;8.120;2022-07-23T06:52:21;48.67;;;43.67;;
16039;SDS011;8124;48.634;8.120;2022-07-23T06:57:25;50.38;;;44.95;;
16039;SDS011;8124;48.634;8.120;2022-07-23T07:02:30;49.03;;;43.75;;
16039;SDS011;8124;48.634;8.120;2022-07-23T07:07:34;49.15;;;43.90;;
16039;SDS011;8124;48.634;8.120;2022-07-23T07:12:38;48.72;;;43.53;;
16039;SDS011;8124;48.634;8.120;2022-07-23T07:17:42;48.85;;;43.80;;
16039;SDS011;8124;48.634;8.120;2022-07-23T07:22:45;49.05;;;43.88;;
16039;SDS011;8124;48.634;8.120;2022-07-23T07:27:48;49.40;;;44.20;;
16039;SDS011;8124;48.634;8.120;2022-07-23T07:32:52;49.42;;;44.33;;
16039;SDS011;8124;48.634;8.120;2022-07-23T07:37:58;49.03;;;43.72;;
16039;SDS011;8124;48.634;8.120;2022-07-23T07:43:01;49.28;;;43.97;;
16039;SDS011;8124;48.634;8.120;2022-07-23T07:48:06;49.17;;;43.97;;
16039;SDS011;8124;48.634;8.120;2022-07-23T07:53:10;49.00;;;44.03;;
16039;SDS011;8124;48.634;8.120;2022-07-23T07:58:13;49.90;;;44.60;;
16039;SDS011;8124;48.634;8.120;2022-07-23T08:03:17;49.35;;;44.28;;
16039;SDS011;8124;48.634;8.120;2022-07-23T08:08:20;49.22;;;44.13;;
16039;SDS011;8124;48.634;8.120;2022-07-23T08:13:23;49.08;;;44.03;;
16039;SDS011;8124;48.634;8.120;2022-07-23T08:18:28;48.80;;;43.70;;
16039;SDS011;8124;48.634;8.120;2022-07-23T08:23:31;49.88;;;44.22;;
16039;SDS011;8124;48.634;8.120;2022-07-23T08:28:34;49.70;;;44.50;;
16039;SDS011;8124;48.634;8.120;2022-07-23T08:33:38;49.20;;;44.03;;
16039;SDS011;8124;48.634;8.120;2022-07-23T08:38:41;50.40;;;45.20;;
16039;SDS011;8124;48.634;8.120;2022-07-23T08:43:44;49.55;;;44.38;;
16039;SDS011;8124;48.634;8.120;2022-07-23T08:48:49;49.05;;;44.05;;
16039;SDS011;8124;48.634;8.120;2022-07-23T08:53:53;49.67;;;44.38;;
16039;SDS011;8124;48.634;8.120;2022-07-23T08:58:59;49.15;;;43.85;;
16039;SDS011;8124;48.634;8.120;2022-07-23T09:04:03;49.67;;;44.47;;
16039;SDS011;8124;48.634;8.120;2022-07-23T09:09:16;49.53;;;44.35;;
16039;SDS011;8124;48.634;8.120;2022-07-23T09:14:21;49.08;;;44.08;;
16039;SDS011;8124;48.634;8.120;2022-07-23T09:19:40;49.83;;;44.50;;
16039;SDS011;8124;48.634;8.120;2022-07-23T09:30:06;48.92;;;43.63;;
16039;SDS011;8124;48.634;8.120;2022-07-23T09:35:11;49.53;;;44.33;;
16039;SDS011;8124;48.634;8.120;2022-07-23T09:40:14;49.17;;;43.90;;
16039;SDS011;8124;48.634;8.120;2022-07-23T09:45:18;49.88;;;44.53;;
16039;SDS011;8124;48.634;8.120;2022-07-23T09:50:23;49.30;;;44.30;;
16039;SDS011;8124;48.634;8.120;2022-07-23T09:55:30;50.00;;;44.88;;
16039;SDS011;8124;48.634;8.120;2022-07-23T10:00:36;48.55;;;43.63;;
16039;SDS011;8124;48.634;8.120;2022-07-23T10:05:41;49.28;;;44.08;;
16039;SDS011;8124;48.634;8.120;2022-07-23T10:11:05;48.92;;;43.50;;
16039;SDS011;8124;48.634;8.120;2022-07-23T10:16:23;48.83;;;43.83;;
16039;SDS011;8124;48.634;8.120;2022-07-23T10:21:30;49.35;;;44.35;;
16039;SDS011;8124;48.634;8.120;2022-07-23T10:26:41;48.40;;;43.53;;
16039;SDS011;8124;48.634;8.120;2022-07-23T10:31:56;48.38;;;43.47;;
16039;SDS011;8124;48.634;8.120;2022-07-23T10:37:07;49.30;;;44.30;;
16039;SDS011;8124;48.634;8.120;2022-07-23T10:42:22;48.45;;;43.55;;
16039;SDS011;8124;48.634;8.120;2022-07-23T10:47:35;48.55;;;43.55;;
16039;SDS011;8124;48.634;8.120;2022-07-23T10:58:17;47.83;;;42.92;;
16039;SDS011;8124;48.634;8.120;2022-07-23T11:03:32;48.33;;;43.38;;
16039;SDS011;8124;48.634;8.120;2022-07-23T11:08:40;48.25;;;43.35;;
16039;SDS011;8124;48.634;8.120;2022-07-23T11:13:49;48.90;;;44.00;;
16039;SDS011;8124;48.634;8.120;2022-07-23T11:19:05;48.58;;;43.67;;
16039;SDS011;8124;48.634;8.120;2022-07-23T11:24:12;48.63;;;43.72;;
16039;SDS011;8124;48.634;8.120;2022-07-23T11:34:49;49.78;;;44.72;;
16039;SDS011;8124;48.634;8.120;2022-07-23T11:39:56;49.33;;;44.33;;
16039;SDS011;8124;48.634;8.120;2022-07-23T11:44:59;49.97;;;44.78;;
16039;SDS011;8124;48.634;8.120;2022-07-23T11:50:04;49.47;;;44.42;;
16039;SDS011;8124;48.634;8.120;2022-07-23T11:55:10;48.95;;;44.05;;
16039;SDS011;8124;48.634;8.120;2022-07-23T12:00:18;49.28;;;44.28;;
16039;SDS011;8124;48.634;8.120;2022-07-23T12:05:23;49.13;;;44.13;;
16039;SDS011;8124;48.634;8.120;2022-07-23T12:10:29;49.25;;;44.15;;
16039;SDS011;8124;48.634;8.120;2022-07-23T12:15:39;48.85;;;43.95;;
16039;SDS011;8124;48.634;8.120;2022-07-23T12:20:45;48.58;;;43.65;;
16039;SDS011;8124;48.634;8.120;2022-07-23T12:25:51;49.42;;;44.47;;
16039;SDS011;8124;48.634;8.120;2022-07-23T12:30:56;49.22;;;44.28;;
16039;SDS011;8124;48.634;8.120;2022-07-23T12:36:01;49.65;;;44.38;;
16039;SDS011;8124;48.634;8.120;2022-07-23T12:41:07;51.22;;;45.95;;
16039;SDS011;8124;48.634;8.120;2022-07-23T12:46:11;49.53;;;44.58;;
16039;SDS011;8124;48.634;8.120;2022-07-23T12:51:17;49.78;;;44.58;;
16039;SDS011;8124;48.634;8.120;2022-07-23T12:56:26;49.55;;;44.45;;
16039;SDS011;8124;48.634;8.120;2022-07-23T13:01:31;49.50;;;44.45;;
16039;SDS011;8124;48.634;8.120;2022-07-23T13:06:36;49.72;;;44.38;;
16039;SDS011;8124;48.634;8.120;2022-07-23T13:11:42;50.25;;;45.13;;
16039;SDS011;8124;48.634;8.120;2022-07-23T13:16:48;49.70;;;44.60;;
16039;SDS011;8124;48.634;8.120;2022-07-23T13:21:53;50.33;;;45.28;;
16039;SDS011;8124;48.634;8.120;2022-07-23T13:26:57;50.00;;;45.03;;
16039;SDS011;8124;48.634;8.120;2022-07-23T13:32:01;50.40;;;45.13;;
16039;SDS011;8124;48.634;8.120;2022-07-23T13:37:13;50.42;;;45.20;;
16039;SDS011;8124;48.634;8.120;2022-07-23T13:42:18;50.20;;;45.20;;
16039;SDS011;8124;48.634;8.120;2022-07-23T13:47:23;49.95;;;44.95;;
16039;SDS011;8124;48.634;8.120;2022-07-23T13:52:27;50.10;;;44.90;;
16039;SDS011;8124;48.634;8.120;2022-07-23T13:57:32;49.65;;;44.75;;
16039;SDS011;8124;48.634;8.120;2022-07-23T14:02:35;50.65;;;45.58;;
16039;SDS011;8124;48.634;8.120;2022-07-23T14:07:39;50.50;;;45.53;;
16039;SDS011;8124;48.634;8.120;2022-07-23T14:12:47;51.10;;;45.90;;
16039;SDS011;8124;48.634;8.120;2022-07-23T14:17:52;50.35;;;45.15;;
16039;SDS011;8124;48.634;8.120;2022-07-23T14:22:56;50.58;;;45.47;;
16039;SDS011;8124;48.634;8.120;2022-07-23T14:28:07;49.80;;;44.80;;
16039;SDS011;8124;48.634;8.120;2022-07-23T14:33:10;50.58;;;45.30;;
16039;SDS011;8124;48.634;8.120;2022-07-23T14:38:15;50.30;;;45.30;;
16039;SDS011;8124;48.634;8.120;2022-07-23T14:43:20;49.63;;;44.55;;
16039;SDS011;8124;48.634;8.120;2022-07-23T14:48:23;50.47;;;45.45;;
16039;SDS011;8124;48.634;8.120;2022-07-23T14:53:26;50.08;;;44.95;;
16039;SDS011;8124;48.634;8.120;2022-07-23T14:58:30;50.15;;;45.13;;
16039;SDS011;8124;48.634;8.120;2022-07-23T15:03:33;50.38;;;45.35;;
16039;SDS011;8124;48.634;8.120;2022-07-23T15:08:43;51.35;;;46.15;;
16039;SDS011;8124;48.634;8.120;2022-07-23T15:13:49;50.55;;;45.45;;
16039;SDS011;8124;48.634;8.120;2022-07-23T15:18:53;50.65;;;45.45;;
16039;SDS011;8124;48.634;8.120;2022-07-23T15:23:56;50.28;;;45.22;;
16039;SDS011;8124;48.634;8.120;2022-07-23T15:29:02;50.00;;;44.97;;
16039;SDS011;8124;48.634;8.120;2022-07-23T15:34:07;50.10;;;44.80;;
16039;SDS011;8124;48.634;8.120;2022-07-23T15:39:10;50.90;;;45.63;;
16039;SDS011;8124;48.634;8.120;2022-07-23T15:44:15;50.65;;;45.45;;
16039;SDS011;8124;48.634;8.120;2022-07-23T15:49:29;50.45;;;45.35;;
16039;SDS011;8124;48.634;8.120;2022-07-23T15:54:32;50.67;;;45.35;;
16039;SDS011;8124;48.634;8.120;2022-07-23T15:59:37;50.88;;;45.67;;
16039;SDS011;8124;48.634;8.120;2022-07-23T16:04:41;50.80;;;45.58;;
16039;SDS011;8124;48.634;8.120;2022-07-23T16:09:44;50.28;;;45.15;;
16039;SDS011;8124;48.634;8.120;2022-07-23T16:14:50;50.08;;;44.92;;
16039;SDS011;8124;48.634;8.120;2022-07-23T16:19:53;50.28;;;45.20;;
16039;SDS011;8124;48.634;8.120;2022-07-23T16:24:57;50.78;;;45.55;;
16039;SDS011;8124;48.634;8.120;2022-07-23T16:30:01;50.88;;;45.58;;
16039;SDS011;8124;48.634;8.120;2022-07-23T16:35:05;50.83;;;45.72;;
16039;SDS011;8124;48.634;8.120;2022-07-23T16:40:14;50.97;;;45.67;;
16039;SDS011;8124;48.634;8.120;2022-07-23T16:45:20;51.15;;;45.97;;
16039;SDS011;8124;48.634;8.120;2022-07-23T16:50:23;49.67;;;44.60;;
16039;SDS011;8124;48.634;8.120;2022-07-23T16:55:26;49.83;;;44.70;;
16039;SDS011;8124;48.634;8.120;2022-07-23T17:00:30;49.75;;;44.65;;
16039;SDS011;8124;48.634;8.120;2022-07-23T17:05:33;49.08;;;44.25;;
16039;SDS011;8124;48.634;8.120;2022-07-23T17:10:36;49.10;;;44.00;;
16039;SDS011;8124;48.634;8.120;2022-07-23T17:15:41;49.42;;;44.47;;
16039;SDS011;8124;48.634;8.120;2022-07-23T17:20:44;49.05;;;44.05;;
16039;SDS011;8124;48.634;8.120;2022-07-23T17:25:47;49.45;;;44.38;;
16039;SDS011;8124;48.634;8.120;2022-07-23T17:30:52;50.03;;;44.92;;
16039;SDS011;8124;48.634;8.120;2022-07-23T17:35:55;49.10;;;44.10;;
16039;SDS011;8124;48.634;8.120;2022-07-23T17:40:58;48.97;;;44.13;;
16039;SDS011;8124;48.634;8.120;2022-07-23T17:46:03;49.95;;;44.88;;
16039;SDS011;8124;48.634;8.120;2022-07-23T17:51:06;49.40;;;44.40;;
16039;SDS011;8124;48.634;8.120;2022-07-23T17:56:10;49.63;;;44.55;;
16039;SDS011;8124;48.634;8.120;2022-07-23T18:01:15;49.45;;;44.55;;
16039;SDS011;8124;48.634;8.120;2022-07-23T18:06:18;49.65;;;44.45;;
16039;SDS011;8124;48.634;8.120;2022-07-23T18:11:21;49.33;;;44.42;;
16039;SDS011;8124;48.634;8.120;2022-07-23T18:16:26;49.92;;;44.83;;
16039;SDS011;8124;48.634;8.120;2022-07-23T18:21:29;49.28;;;44.38;;
16039;SDS011;8124;48.634;8.120;2022-07-23T18:26:32;50.13;;;45.03;;
16039;SDS011;8124;48.634;8.120;2022-07-23T18:31:37;50.65;;;45.35;;
16039;SDS011;8124;48.634;8.120;2022-07-23T18:36:40;49.60;;;44.70;;
16039;SDS011;8124;48.634;8.120;2022-07-23T18:41:43;48.97;;;44.08;;
16039;SDS011;8124;48.634;8.120;2022-07-23T18:46:49;50.08;;;44.97;;
16039;SDS011;8124;48.634;8.120;2022-07-23T18:51:52;48.55;;;43.75;;
16039;SDS011;8124;48.634;8.120;2022-07-23T18:56:55;51.50;;;45.45;;
16039;SDS011;8124;48.634;8.120;2022-07-23T19:02:01;51.28;;;45.00;;
16039;SDS011;8124;48.634;8.120;2022-07-23T19:07:04;51.00;;;45.45;;
16039;SDS011;8124;48.634;8.120;2022-07-23T19:12:08;50.30;;;44.38;;
16039;SDS011;8124;48.634;8.120;2022-07-23T19:17:12;49.05;;;44.05;;
16039;SDS011;8124;48.634;8.120;2022-07-23T19:22:15;49.15;;;44.03;;
16039;SDS011;8124;48.634;8.120;2022-07-23T19:27:18;49.58;;;44.38;;
16039;SDS011;8124;48.634;8.120;2022-07-23T19:32:23;50.08;;;44.80;;
16039;SDS011;8124;48.634;8.120;2022-07-23T19:37:26;49.63;;;44.72;;
16039;SDS011;8124;48.634;8.120;2022-07-23T19:42:29;49.72;;;44.72;;
16039;SDS011;8124;48.634;8.120;2022-07-23T19:47:38;48.50;;;43.65;;
16039;SDS011;8124;48.634;8.120;2022-07-23T19:52:54;48.85;;;44.00;;
16039;SDS011;8124;48.634;8.120;2022-07-23T19:57:57;49.00;;;44.10;;
16039;SDS011;8124;48.634;8.120;2022-07-23T20:03:01;50.28;;;45.17;;
16039;SDS011;8124;48.634;8.120;2022-07-23T20:08:05;49.05;;;44.13;;
16039;SDS011;8124;48.634;8.120;2022-07-23T20:13:08;48.88;;;43.97;;
16039;SDS011;8124;48.634;8.120;2022-07-23T20:18:12;48.20;;;43.40;;
16039;SDS011;8124;48.634;8.120;2022-07-23T20:23:15;53.85;;;43.90;;
16039;SDS011;8124;48.634;8.120;2022-07-23T20:28:18;47.88;;;43.15;;
16039;SDS011;8124;48.634;8.120;2022-07-23T20:33:23;48.90;;;44.00;;
16039;SDS011;8124;48.634;8.120;2022-07-23T20:38:26;48.03;;;43.22;;
16039;SDS011;8124;48.634;8.120;2022-07-23T20:43:29;49.03;;;43.95;;
16039;SDS011;8124;48.634;8.120;2022-07-23T20:48:34;49.67;;;44.70;;
16039;SDS011;8124;48.634;8.120;2022-07-23T20:53:37;48.33;;;43.40;;
16039;SDS011;8124;48.634;8.120;2022-07-23T20:58:40;48.78;;;43.58;;
16039;SDS011;8124;48.634;8.120;2022-07-23T21:03:44;49.42;;;44.33;;
16039;SDS011;8124;48.634;8.120;2022-07-23T21:08:47;48.40;;;43.42;;
16039;SDS011;8124;48.634;8.120;2022-07-23T21:13:50;48.25;;;43.47;;
16039;SDS011;8124;48.634;8.120;2022-07-23T21:18:54;48.63;;;43.70;;
16039;SDS011;8124;48.634;8.120;2022-07-23T21:23:58;49.20;;;44.17;;
16039;SDS011;8124;48.634;8.120;2022-07-23T21:29:01;48.75;;;43.85;;
16039;SDS011;8124;48.634;8.120;2022-07-23T21:34:08;48.70;;;43.67;;
16039;SDS011;8124;48.634;8.120;2022-07-23T21:39:11;48.72;;;43.75;;
16039;SDS011;8124;48.634;8.120;2022-07-23T21:44:15;48.78;;;43.72;;
16039;SDS011;8124;48.634;8.120;2022-07-23T21:49:19;48.08;;;43.22;;
16039;SDS011;8124;48.634;8.120;2022-07-23T21:54:23;48.25;;;43.35;;
16039;SDS011;8124;48.634;8.120;2022-07-23T21:59:26;48.65;;;43.55;;
16039;SDS011;8124;48.634;8.120;2022-07-23T22:04:30;47.67;;;42.83;;
16039;SDS011;8124;48.634;8.120;2022-07-23T22:09:33;48.08;;;43.20;;
16039;SDS011;8124;48.634;8.120;2022-07-23T22:14:36;48.47;;;43.47;;
16039;SDS011;8124;48.634;8.120;2022-07-23T22:19:41;48.42;;;43.53;;
16039;SDS011;8124;48.634;8.120;2022-07-23T22:24:44;48.15;;;43.13;;
16039;SDS011;8124;48.634;8.120;2022-07-23T22:29:47;47.47;;;42.67;;
16039;SDS011;8124;48.634;8.120;2022-07-23T22:34:51;47.83;;;42.92;;
16039;SDS011;8124;48.634;8.120;2022-07-23T22:39:54;47.17;;;42.42;;
16039;SDS011;8124;48.634;8.120;2022-07-23T22:44:57;48.05;;;43.05;;
16039;SDS011;8124;48.634;8.120;2022-07-23T22:50:02;47.53;;;42.63;;
16039;SDS011;8124;48.634;8.120;2022-07-23T22:55:11;47.85;;;42.95;;
16039;SDS011;8124;48.634;8.120;2022-07-23T23:00:14;48.05;;;42.90;;
16039;SDS011;8124;48.634;8.120;2022-07-23T23:05:21;48.00;;;43.15;;
16039;SDS011;8124;48.634;8.120;2022-07-23T23:10:24;48.70;;;43.70;;
16039;SDS011;8124;48.634;8.120;2022-07-23T23:15:27;46.95;;;42.25;;
16039;SDS011;8124;48.634;8.120;2022-07-23T23:20:32;48.47;;;43.47;;
16039;SDS011;8124;48.634;8.120;2022-07-23T23:25:35;46.85;;;42.15;;
16039;SDS011;8124;48.634;8.120;2022-07-23T23:30:38;47.42;;;42.63;;
16039;SDS011;8124;48.634;8.120;2022-07-23T23:35:42;47.47;;;42.67;;
16039;SDS011;8124;48.634;8.120;2022-07-23T23:40:45;48.03;;;43.08;;
16039;SDS011;8124;48.634;8.120;2022-07-23T23:45:48;48.13;;;43.13;;
16039;SDS011;8124;48.634;8.120;2022-07-23T23:50:53;46.92;;;42.22;;
16039;SDS011;8124;48.634;8.120;2022-07-23T23:55:56;48.20;;;43.25;;
